sensor_id;sensor_type;location;lat;lon;timestamp;pressure;altitude;pressure_sealevel;temperature;humidity
40013;BME280;37387;42.672;23.334;2023-03-20T00:03:38;947.1;;;5.1;100.0
40013;BME280;37387;42.672;23.334;2023-03-20T00:04:38;947.1;;;5.0;100.0
40013;BME280;37387;42.672;23.334;2023-03-20T00:07:38;947.1;;;4.9;100.0
40013;BME280;37387;42.672;23.334;2023-03-20T00:14:38;947.1;;;4.8;100.0
40013;BME280;37387;42.672;23.334;2023-03-20T00:21:38;947.1;;;4.7;100.0
40013;BME280;37387;42.672;23.334;2023-03-20T00:25:38;947.0;;;4.6;100.0
40013;BME280;37387;42.672;23.334;2023-03-20T00:28:38;947.1;;;4.7;100.0
40013;BME280;37387;42.672;23.334;2023-03-20T00:33:38;947.0;;;4.6;100.0
40013;BME280;37387;42.672;23.334;2023-03-20T00:39:39;947.0;;;4.7;100.0
40013;BME280;37387;42.672;23.334;2023-03-20T00:47:38;946.9;;;4.8;100.0
40013;BME280;37387;42.672;23.334;2023-03-20T00:50:38;946.9;;;4.7;100.0
40013;BME280;37387;42.672;23.334;2023-03-20T00:54:37;946.9;;;4.6;100.0
40013;BME280;37387;42.672;23.334;2023-03-20T00:59:38;946.9;;;4.5;100.0
40013;BME280;37387;42.672;23.334;2023-03-20T01:02:38;946.9;;;4.4;100.0
40013;BME280;37387;42.672;23.334;2023-03-20T01:07:38;946.8;;;4.3;100.0
40013;BME280;37387;42.672;23.334;2023-03-20T01:11:38;946.7;;;4.2;100.0
40013;BME280;37387;42.672;23.334;2023-03-20T01:14:38;946.7;;;4.3;100.0
40013;BME280;37387;42.672;23.334;2023-03-20T01:15:38;946.7;;;4.2;100.0
40013;BME280;37387;42.672;23.334;2023-03-20T01:19:37;946.7;;;4.3;100.0
40013;BME280;37387;42.672;23.334;2023-03-20T01:23:38;946.7;;;4.2;100.0
40013;BME280;37387;42.672;23.334;2023-03-20T01:30:37;946.7;;;4.3;100.0
40013;BME280;37387;42.672;23.334;2023-03-20T01:31:38;946.7;;;4.2;100.0
40013;BME280;37387;42.672;23.334;2023-03-20T01:33:37;946.7;;;4.1;100.0
40013;BME280;37387;42.672;23.334;2023-03-20T01:36:38;946.7;;;4.2;100.0
40013;BME280;37387;42.672;23.334;2023-03-20T01:37:37;946.7;;;4.1;100.0
40013;BME280;37387;42.672;23.334;2023-03-20T01:41:37;946.7;;;4.0;100.0
40013;BME280;37387;42.672;23.334;2023-03-20T01:45:37;946.7;;;4.1;100.0
40013;BME280;37387;42.672;23.334;2023-03-20T01:47:38;946.8;;;4.2;100.0
40013;BME280;37387;42.672;23.334;2023-03-20T01:56:39;946.8;;;4.1;100.0
40013;BME280;37387;42.672;23.334;2023-03-20T02:00:37;946.8;;;4.0;100.0
40013;BME280;37387;42.672;23.334;2023-03-20T02:06:38;946.7;;;3.9;100.0
40013;BME280;37387;42.672;23.334;2023-03-20T02:08:39;946.7;;;3.8;100.0
40013;BME280;37387;42.672;23.334;2023-03-20T02:13:37;946.7;;;3.9;100.0
40013;BME280;37387;42.672;23.334;2023-03-20T02:17:37;946.7;;;4.0;100.0
40013;BME280;37387;42.672;23.334;2023-03-20T02:29:46;946.7;;;3.9;100.0
40013;BME280;37387;42.672;23.334;2023-03-20T02:37:40;946.8;;;3.7;100.0
40013;BME280;37387;42.672;23.334;2023-03-20T02:45:43;946.7;;;3.6;100.0
40013;BME280;37387;42.672;23.334;2023-03-20T02:48:38;946.6;;;3.7;100.0
40013;BME280;37387;42.672;23.334;2023-03-20T02:52:39;946.6;;;3.6;100.0
40013;BME280;37387;42.672;23.334;2023-03-20T02:54:38;946.5;;;3.5;100.0
40013;BME280;37387;42.672;23.334;2023-03-20T03:01:39;946.6;;;3.4;100.0
40013;BME280;37387;42.672;23.334;2023-03-20T03:03:38;946.6;;;3.3;100.0
40013;BME280;37387;42.672;23.334;2023-03-20T03:16:37;946.5;;;3.2;100.0
40013;BME280;37387;42.672;23.334;2023-03-20T03:17:37;946.5;;;3.3;100.0
40013;BME280;37387;42.672;23.334;2023-03-20T03:29:37;946.6;;;3.4;100.0
40013;BME280;37387;42.672;23.334;2023-03-20T03:31:37;946.6;;;3.3;100.0
40013;BME280;37387;42.672;23.334;2023-03-20T03:32:39;946.5;;;3.4;100.0
40013;BME280;37387;42.672;23.334;2023-03-20T03:37:39;946.5;;;3.3;100.0
40013;BME280;37387;42.672;23.334;2023-03-20T03:40:38;946.6;;;3.2;100.0
40013;BME280;37387;42.672;23.334;2023-03-20T03:46:39;946.5;;;3.3;100.0
40013;BME280;37387;42.672;23.334;2023-03-20T03:50:39;946.5;;;3.2;100.0
40013;BME280;37387;42.672;23.334;2023-03-20T03:55:38;946.5;;;3.1;100.0
40013;BME280;37387;42.672;23.334;2023-03-20T03:59:39;946.5;;;3.0;100.0
40013;BME280;37387;42.672;23.334;2023-03-20T04:01:37;946.5;;;3.1;100.0
40013;BME280;37387;42.672;23.334;2023-03-20T04:03:38;946.5;;;3.0;100.0
40013;BME280;37387;42.672;23.334;2023-03-20T04:06:38;946.5;;;2.9;100.0
40013;BME280;37387;42.672;23.334;2023-03-20T04:09:37;946.5;;;3.0;100.0
40013;BME280;37387;42.672;23.334;2023-03-20T04:23:37;946.3;;;2.9;100.0
40013;BME280;37387;42.672;23.334;2023-03-20T04:24:37;946.3;;;3.0;100.0
40013;BME280;37387;42.672;23.334;2023-03-20T04:30:37;946.3;;;3.1;100.0
40013;BME280;37387;42.672;23.334;2023-03-20T04:35:37;946.3;;;3.2;100.0
40013;BME280;37387;42.672;23.334;2023-03-20T04:38:37;946.4;;;3.3;100.0
40013;BME280;37387;42.672;23.334;2023-03-20T04:40:37;946.4;;;3.4;100.0
40013;BME280;37387;42.672;23.334;2023-03-20T04:41:37;946.4;;;3.5;100.0
40013;BME280;37387;42.672;23.334;2023-03-20T04:43:37;946.4;;;3.6;100.0
40013;BME280;37387;42.672;23.334;2023-03-20T04:45:38;946.5;;;3.7;100.0
40013;BME280;37387;42.672;23.334;2023-03-20T04:46:37;946.5;;;3.8;100.0
40013;BME280;37387;42.672;23.334;2023-03-20T04:48:37;946.6;;;3.9;100.0
40013;BME280;37387;42.672;23.334;2023-03-20T04:49:37;946.6;;;4.0;100.0
40013;BME280;37387;42.672;23.334;2023-03-20T04:50:38;946.6;;;4.1;100.0
40013;BME280;37387;42.672;23.334;2023-03-20T04:51:37;946.6;;;4.2;100.0
40013;BME280;37387;42.672;23.334;2023-03-20T04:52:37;946.7;;;4.3;100.0
40013;BME280;37387;42.672;23.334;2023-03-20T04:53:37;946.7;;;4.4;100.0
40013;BME280;37387;42.672;23.334;2023-03-20T04:54:37;946.7;;;4.5;100.0
40013;BME280;37387;42.672;23.334;2023-03-20T04:55:38;946.7;;;4.6;100.0
40013;BME280;37387;42.672;23.334;2023-03-20T04:56:37;946.8;;;4.8;100.0
40013;BME280;37387;42.672;23.334;2023-03-20T04:59:37;946.8;;;4.9;100.0
40013;BME280;37387;42.672;23.334;2023-03-20T05:00:37;946.8;;;5.1;100.0
40013;BME280;37387;42.672;23.334;2023-03-20T05:02:37;946.8;;;5.2;100.0
40013;BME280;37387;42.672;23.334;2023-03-20T05:03:37;946.8;;;5.4;100.0
40013;BME280;37387;42.672;23.334;2023-03-20T05:04:37;946.8;;;5.6;100.0
40013;BME280;37387;42.672;23.334;2023-03-20T05:05:37;946.8;;;5.9;100.0
40013;BME280;37387;42.672;23.334;2023-03-20T05:06:37;946.8;;;6.2;100.0
40013;BME280;37387;42.672;23.334;2023-03-20T05:07:37;946.8;;;6.4;100.0
40013;BME280;37387;42.672;23.334;2023-03-20T05:08:37;946.8;;;6.8;100.0
40013;BME280;37387;42.672;23.334;2023-03-20T05:09:37;946.8;;;7.0;100.0
40013;BME280;37387;42.672;23.334;2023-03-20T05:10:37;946.9;;;7.2;97.7
40013;BME280;37387;42.672;23.334;2023-03-20T05:11:37;946.9;;;7.5;95.9
40013;BME280;37387;42.672;23.334;2023-03-20T05:12:37;946.9;;;7.7;93.5
40013;BME280;37387;42.672;23.334;2023-03-20T05:13:37;946.9;;;7.5;91.3
40013;BME280;37387;42.672;23.334;2023-03-20T05:14:37;946.9;;;7.6;87.7
40013;BME280;37387;42.672;23.334;2023-03-20T05:15:37;946.9;;;7.7;87.8
40013;BME280;37387;42.672;23.334;2023-03-20T05:16:38;946.9;;;7.9;86.2
40013;BME280;37387;42.672;23.334;2023-03-20T05:17:37;946.9;;;8.0;84.7
40013;BME280;37387;42.672;23.334;2023-03-20T05:18:37;946.9;;;8.4;83.4
40013;BME280;37387;42.672;23.334;2023-03-20T05:19:37;946.9;;;8.7;83.3
40013;BME280;37387;42.672;23.334;2023-03-20T05:20:37;947.0;;;9.0;81.2
40013;BME280;37387;42.672;23.334;2023-03-20T05:21:37;947.0;;;9.2;74.5
40013;BME280;37387;42.672;23.334;2023-03-20T05:22:37;947.0;;;9.1;74.5
40013;BME280;37387;42.672;23.334;2023-03-20T05:23:37;947.0;;;9.4;73.5
40013;BME280;37387;42.672;23.334;2023-03-20T05:24:37;947.0;;;9.8;74.2
40013;BME280;37387;42.672;23.334;2023-03-20T05:25:37;947.0;;;10.0;72.9
40013;BME280;37387;42.672;23.334;2023-03-20T05:26:37;947.0;;;10.3;71.3
40013;BME280;37387;42.672;23.334;2023-03-20T05:27:37;947.0;;;10.4;70.1
40013;BME280;37387;42.672;23.334;2023-03-20T05:28:38;947.0;;;10.6;67.7
40013;BME280;37387;42.672;23.334;2023-03-20T05:30:37;947.1;;;10.9;65.1
40013;BME280;37387;42.672;23.334;2023-03-20T05:33:37;947.0;;;10.2;63.5
40013;BME280;37387;42.672;23.334;2023-03-20T05:34:38;947.0;;;10.0;65.3
40013;BME280;37387;42.672;23.334;2023-03-20T05:35:37;947.0;;;10.3;66.2
40013;BME280;37387;42.672;23.334;2023-03-20T05:36:37;947.1;;;10.5;64.6
40013;BME280;37387;42.672;23.334;2023-03-20T05:37:38;947.0;;;10.1;64.6
40013;BME280;37387;42.672;23.334;2023-03-20T05:38:37;947.0;;;9.9;65.4
40013;BME280;37387;42.672;23.334;2023-03-20T05:39:37;947.0;;;10.5;67.0
40013;BME280;37387;42.672;23.334;2023-03-20T05:40:37;947.1;;;10.9;66.8
40013;BME280;37387;42.672;23.334;2023-03-20T05:41:37;947.1;;;11.0;62.9
40013;BME280;37387;42.672;23.334;2023-03-20T05:42:37;947.1;;;11.4;62.9
40013;BME280;37387;42.672;23.334;2023-03-20T05:43:37;947.1;;;11.6;61.2
40013;BME280;37387;42.672;23.334;2023-03-20T05:44:37;947.1;;;12.0;60.5
40013;BME280;37387;42.672;23.334;2023-03-20T05:45:37;947.1;;;12.5;60.5
40013;BME280;37387;42.672;23.334;2023-03-20T05:46:37;947.1;;;12.8;58.2
40013;BME280;37387;42.672;23.334;2023-03-20T05:47:37;947.1;;;13.2;56.6
40013;BME280;37387;42.672;23.334;2023-03-20T05:49:37;947.1;;;12.4;53.5
40013;BME280;37387;42.672;23.334;2023-03-20T05:52:37;947.1;;;12.5;55.6
40013;BME280;37387;42.672;23.334;2023-03-20T05:53:37;947.2;;;13.2;56.1
40013;BME280;37387;42.672;23.334;2023-03-20T05:54:37;947.2;;;13.6;54.9
40013;BME280;37387;42.672;23.334;2023-03-20T05:55:37;947.2;;;14.0;51.1
40013;BME280;37387;42.672;23.334;2023-03-20T05:56:37;947.2;;;13.2;51.1
40013;BME280;37387;42.672;23.334;2023-03-20T05:57:37;947.1;;;12.4;51.5
40013;BME280;37387;42.672;23.334;2023-03-20T05:58:37;947.2;;;12.7;53.7
40013;BME280;37387;42.672;23.334;2023-03-20T05:59:37;947.2;;;13.6;52.6
40013;BME280;37387;42.672;23.334;2023-03-20T06:01:37;947.2;;;13.0;51.2
40013;BME280;37387;42.672;23.334;2023-03-20T06:02:37;947.2;;;12.4;52.4
40013;BME280;37387;42.672;23.334;2023-03-20T06:03:37;947.2;;;11.9;54.0
40013;BME280;37387;42.672;23.334;2023-03-20T06:05:37;947.1;;;12.6;56.8
40013;BME280;37387;42.672;23.334;2023-03-20T06:06:37;947.1;;;12.7;55.3
40013;BME280;37387;42.672;23.334;2023-03-20T06:07:37;947.1;;;12.6;53.6
40013;BME280;37387;42.672;23.334;2023-03-20T06:08:37;947.1;;;12.0;54.0
40013;BME280;37387;42.672;23.334;2023-03-20T06:09:37;947.1;;;11.9;55.5
40013;BME280;37387;42.672;23.334;2023-03-20T06:10:37;947.1;;;12.1;56.1
40013;BME280;37387;42.672;23.334;2023-03-20T06:11:37;947.1;;;12.0;56.2
40013;BME280;37387;42.672;23.334;2023-03-20T06:12:37;947.1;;;12.5;56.3
40013;BME280;37387;42.672;23.334;2023-03-20T06:13:37;947.1;;;12.9;56.2
40013;BME280;37387;42.672;23.334;2023-03-20T06:14:37;947.2;;;12.5;53.9
40013;BME280;37387;42.672;23.334;2023-03-20T06:15:37;947.1;;;12.3;54.6
40013;BME280;37387;42.672;23.334;2023-03-20T06:16:37;947.1;;;12.7;53.7
40013;BME280;37387;42.672;23.334;2023-03-20T06:17:37;947.1;;;12.4;57.3
40013;BME280;37387;42.672;23.334;2023-03-20T06:18:37;947.1;;;12.5;57.3
40013;BME280;37387;42.672;23.334;2023-03-20T06:19:37;947.1;;;12.8;54.8
40013;BME280;37387;42.672;23.334;2023-03-20T06:21:37;947.2;;;13.0;53.4
40013;BME280;37387;42.672;23.334;2023-03-20T06:22:37;947.2;;;12.7;52.5
40013;BME280;37387;42.672;23.334;2023-03-20T06:23:37;947.2;;;12.3;53.2
40013;BME280;37387;42.672;23.334;2023-03-20T06:24:37;947.2;;;12.2;54.4
40013;BME280;37387;42.672;23.334;2023-03-20T06:25:37;947.2;;;11.9;54.4
40013;BME280;37387;42.672;23.334;2023-03-20T06:26:37;947.2;;;11.7;55.5
40013;BME280;37387;42.672;23.334;2023-03-20T06:27:37;947.2;;;11.8;55.5
40013;BME280;37387;42.672;23.334;2023-03-20T06:28:37;947.2;;;12.3;56.5
40013;BME280;37387;42.672;23.334;2023-03-20T06:29:37;947.2;;;12.8;52.9
40013;BME280;37387;42.672;23.334;2023-03-20T06:30:38;947.2;;;13.0;52.9
40013;BME280;37387;42.672;23.334;2023-03-20T06:31:37;947.2;;;12.6;51.7
40013;BME280;37387;42.672;23.334;2023-03-20T06:32:37;947.2;;;12.2;52.8
40013;BME280;37387;42.672;23.334;2023-03-20T06:33:37;947.1;;;12.4;53.8
40013;BME280;37387;42.672;23.334;2023-03-20T06:34:37;947.1;;;12.5;54.5
40013;BME280;37387;42.672;23.334;2023-03-20T06:35:37;947.2;;;12.9;53.7
40013;BME280;37387;42.672;23.334;2023-03-20T06:36:37;947.2;;;12.5;52.5
40013;BME280;37387;42.672;23.334;2023-03-20T06:37:38;947.1;;;12.6;52.9
40013;BME280;37387;42.672;23.334;2023-03-20T06:38:37;947.3;;;13.8;53.3
40013;BME280;37387;42.672;23.334;2023-03-20T06:39:37;947.2;;;14.4;48.9
40013;BME280;37387;42.672;23.334;2023-03-20T06:40:37;947.2;;;14.2;48.9
40013;BME280;37387;42.672;23.334;2023-03-20T06:41:37;947.3;;;13.6;48.6
40013;BME280;37387;42.672;23.334;2023-03-20T06:42:37;947.3;;;12.9;49.8
40013;BME280;37387;42.672;23.334;2023-03-20T06:43:37;947.2;;;12.3;51.5
40013;BME280;37387;42.672;23.334;2023-03-20T06:44:37;947.2;;;12.0;53.3
40013;BME280;37387;42.672;23.334;2023-03-20T06:45:38;947.2;;;12.2;54.3
40013;BME280;37387;42.672;23.334;2023-03-20T06:46:37;947.2;;;12.4;54.5
40013;BME280;37387;42.672;23.334;2023-03-20T06:47:37;947.2;;;12.8;53.7
40013;BME280;37387;42.672;23.334;2023-03-20T06:48:37;947.2;;;13.7;53.6
40013;BME280;37387;42.672;23.334;2023-03-20T06:49:37;947.2;;;14.5;51.8
40013;BME280;37387;42.672;23.334;2023-03-20T06:50:37;947.2;;;14.7;47.9
40013;BME280;37387;42.672;23.334;2023-03-20T06:51:37;947.2;;;15.6;47.9
40013;BME280;37387;42.672;23.334;2023-03-20T06:52:37;947.2;;;16.5;46.6
40013;BME280;37387;42.672;23.334;2023-03-20T06:53:37;947.2;;;15.9;44.0
40013;BME280;37387;42.672;23.334;2023-03-20T06:54:37;947.2;;;14.5;44.8
40013;BME280;37387;42.672;23.334;2023-03-20T06:55:37;947.1;;;13.5;46.9
40013;BME280;37387;42.672;23.334;2023-03-20T06:56:37;947.2;;;13.4;50.0
40013;BME280;37387;42.672;23.334;2023-03-20T06:57:38;947.1;;;12.9;51.6
40013;BME280;37387;42.672;23.334;2023-03-20T06:58:37;947.1;;;11.6;55.3
40013;BME280;37387;42.672;23.334;2023-03-20T06:59:37;947.1;;;12.8;55.3
40013;BME280;37387;42.672;23.334;2023-03-20T07:00:37;947.1;;;13.1;53.9
40013;BME280;37387;42.672;23.334;2023-03-20T07:01:38;947.1;;;13.8;53.1
40013;BME280;37387;42.672;23.334;2023-03-20T07:02:37;947.1;;;13.2;50.3
40013;BME280;37387;42.672;23.334;2023-03-20T07:03:38;947.1;;;13.3;51.4
40013;BME280;37387;42.672;23.334;2023-03-20T07:04:38;947.1;;;12.9;51.4
40013;BME280;37387;42.672;23.334;2023-03-20T07:05:37;947.1;;;12.4;52.1
40013;BME280;37387;42.672;23.334;2023-03-20T07:06:37;947.1;;;12.3;53.9
40013;BME280;37387;42.672;23.334;2023-03-20T07:07:37;947.1;;;13.2;54.4
40013;BME280;37387;42.672;23.334;2023-03-20T07:08:37;947.1;;;14.2;53.0
40013;BME280;37387;42.672;23.334;2023-03-20T07:09:37;947.1;;;14.4;50.4
40013;BME280;37387;42.672;23.334;2023-03-20T07:10:37;947.0;;;14.3;49.2
40013;BME280;37387;42.672;23.334;2023-03-20T07:11:37;947.0;;;14.7;49.2
40013;BME280;37387;42.672;23.334;2023-03-20T07:12:37;947.1;;;15.1;48.9
40013;BME280;37387;42.672;23.334;2023-03-20T07:13:37;947.0;;;14.4;47.0
40013;BME280;37387;42.672;23.334;2023-03-20T07:14:37;947.0;;;14.0;48.1
40013;BME280;37387;42.672;23.334;2023-03-20T07:15:37;947.0;;;14.3;49.8
40013;BME280;37387;42.672;23.334;2023-03-20T07:16:37;947.1;;;13.9;49.1
40013;BME280;37387;42.672;23.334;2023-03-20T07:17:37;947.1;;;14.6;50.0
40013;BME280;37387;42.672;23.334;2023-03-20T07:18:37;947.1;;;14.4;49.3
40013;BME280;37387;42.672;23.334;2023-03-20T07:19:37;947.0;;;14.1;49.4
40013;BME280;37387;42.672;23.334;2023-03-20T07:20:37;947.1;;;13.8;49.8
40013;BME280;37387;42.672;23.334;2023-03-20T07:21:37;947.1;;;14.7;50.5
40013;BME280;37387;42.672;23.334;2023-03-20T07:22:38;947.1;;;15.6;49.0
40013;BME280;37387;42.672;23.334;2023-03-20T07:23:37;947.1;;;16.5;44.7
40013;BME280;37387;42.672;23.334;2023-03-20T07:24:37;947.0;;;16.3;44.6
40013;BME280;37387;42.672;23.334;2023-03-20T07:25:37;947.0;;;16.8;44.6
40013;BME280;37387;42.672;23.334;2023-03-20T07:26:37;947.0;;;17.4;43.6
40013;BME280;37387;42.672;23.334;2023-03-20T07:27:37;947.1;;;16.8;42.6
40013;BME280;37387;42.672;23.334;2023-03-20T07:28:38;947.0;;;16.6;42.3
40013;BME280;37387;42.672;23.334;2023-03-20T07:29:37;947.0;;;17.3;43.4
40013;BME280;37387;42.672;23.334;2023-03-20T07:30:37;947.1;;;17.8;41.7
40013;BME280;37387;42.672;23.334;2023-03-20T07:31:37;947.1;;;18.2;41.4
40013;BME280;37387;42.672;23.334;2023-03-20T07:32:38;947.1;;;18.8;39.4
40013;BME280;37387;42.672;23.334;2023-03-20T07:33:37;947.1;;;18.3;39.4
40013;BME280;37387;42.672;23.334;2023-03-20T07:34:37;947.1;;;18.2;39.5
40013;BME280;37387;42.672;23.334;2023-03-20T07:35:37;947.1;;;18.4;39.9
40013;BME280;37387;42.672;23.334;2023-03-20T07:36:37;947.2;;;18.5;39.4
40013;BME280;37387;42.672;23.334;2023-03-20T07:38:37;947.1;;;18.7;39.3
40013;BME280;37387;42.672;23.334;2023-03-20T07:39:37;947.1;;;18.5;38.7
40013;BME280;37387;42.672;23.334;2023-03-20T07:40:37;947.1;;;18.2;38.9
40013;BME280;37387;42.672;23.334;2023-03-20T07:41:37;947.1;;;17.9;39.7
40013;BME280;37387;42.672;23.334;2023-03-20T07:42:37;947.1;;;17.6;40.9
40013;BME280;37387;42.672;23.334;2023-03-20T07:43:37;947.1;;;18.2;40.9
40013;BME280;37387;42.672;23.334;2023-03-20T07:44:37;947.1;;;18.0;40.4
40013;BME280;37387;42.672;23.334;2023-03-20T07:45:37;947.1;;;18.3;40.0
40013;BME280;37387;42.672;23.334;2023-03-20T07:46:37;947.1;;;17.2;40.0
40013;BME280;37387;42.672;23.334;2023-03-20T07:47:37;947.1;;;17.5;41.4
40013;BME280;37387;42.672;23.334;2023-03-20T07:48:37;947.1;;;18.0;41.4
40013;BME280;37387;42.672;23.334;2023-03-20T07:49:37;947.1;;;18.2;40.6
40013;BME280;37387;42.672;23.334;2023-03-20T07:52:37;947.1;;;17.7;40.1
40013;BME280;37387;42.672;23.334;2023-03-20T07:53:37;947.1;;;17.9;40.8
40013;BME280;37387;42.672;23.334;2023-03-20T07:54:37;947.2;;;18.6;39.5
40013;BME280;37387;42.672;23.334;2023-03-20T07:55:37;947.2;;;19.1;39.5
40013;BME280;37387;42.672;23.334;2023-03-20T07:56:37;947.2;;;18.9;38.5
40013;BME280;37387;42.672;23.334;2023-03-20T07:57:37;947.1;;;18.7;38.6
40013;BME280;37387;42.672;23.334;2023-03-20T07:58:37;947.1;;;18.6;38.9
40013;BME280;37387;42.672;23.334;2023-03-20T07:59:37;947.2;;;19.1;39.0
40013;BME280;37387;42.672;23.334;2023-03-20T08:00:37;947.2;;;18.9;38.4
40013;BME280;37387;42.672;23.334;2023-03-20T08:01:38;947.2;;;20.0;36.8
40013;BME280;37387;42.672;23.334;2023-03-20T08:03:37;947.2;;;20.4;36.4
40013;BME280;37387;42.672;23.334;2023-03-20T08:04:37;947.1;;;21.2;34.8
40013;BME280;37387;42.672;23.334;2023-03-20T08:05:37;947.2;;;21.7;34.0
40013;BME280;37387;42.672;23.334;2023-03-20T08:06:37;947.2;;;22.4;33.1
40013;BME280;37387;42.672;23.334;2023-03-20T08:07:37;947.2;;;22.6;33.1
40013;BME280;37387;42.672;23.334;2023-03-20T08:08:37;947.2;;;22.8;32.6
40013;BME280;37387;42.672;23.334;2023-03-20T08:09:37;947.2;;;20.9;32.5
40013;BME280;37387;42.672;23.334;2023-03-20T08:10:37;947.1;;;21.0;34.2
40013;BME280;37387;42.672;23.334;2023-03-20T08:11:37;947.1;;;20.4;34.6
40013;BME280;37387;42.672;23.334;2023-03-20T08:12:37;947.1;;;20.5;35.4
40013;BME280;37387;42.672;23.334;2023-03-20T08:13:37;947.1;;;20.6;35.4
40013;BME280;37387;42.672;23.334;2023-03-20T08:14:37;947.1;;;21.5;35.3
40013;BME280;37387;42.672;23.334;2023-03-20T08:15:37;947.1;;;21.4;34.0
40013;BME280;37387;42.672;23.334;2023-03-20T08:16:37;947.1;;;21.1;34.0
40013;BME280;37387;42.672;23.334;2023-03-20T08:17:40;947.1;;;21.6;34.2
40013;BME280;37387;42.672;23.334;2023-03-20T08:18:37;947.1;;;20.6;33.9
40013;BME280;37387;42.672;23.334;2023-03-20T08:19:37;947.1;;;21.1;34.8
40013;BME280;37387;42.672;23.334;2023-03-20T08:20:37;947.1;;;21.6;34.3
40013;BME280;37387;42.672;23.334;2023-03-20T08:21:37;947.1;;;22.1;33.7
40013;BME280;37387;42.672;23.334;2023-03-20T08:22:38;947.1;;;21.2;33.2
40013;BME280;37387;42.672;23.334;2023-03-20T08:23:37;947.1;;;21.1;33.8
40013;BME280;37387;42.672;23.334;2023-03-20T08:24:37;947.2;;;21.6;33.7
40013;BME280;37387;42.672;23.334;2023-03-20T08:25:37;947.1;;;21.8;33.7
40013;BME280;37387;42.672;23.334;2023-03-20T08:26:38;947.1;;;21.4;33.4
40013;BME280;37387;42.672;23.334;2023-03-20T08:27:37;947.1;;;20.6;33.7
40013;BME280;37387;42.672;23.334;2023-03-20T08:28:37;947.1;;;20.8;34.6
40013;BME280;37387;42.672;23.334;2023-03-20T08:29:37;947.2;;;21.8;34.8
40013;BME280;37387;42.672;23.334;2023-03-20T08:30:37;947.1;;;22.4;33.8
40013;BME280;37387;42.672;23.334;2023-03-20T08:31:38;947.2;;;23.0;32.8
40013;BME280;37387;42.672;23.334;2023-03-20T08:32:37;947.2;;;22.1;31.9
40013;BME280;37387;42.672;23.334;2023-03-20T08:33:37;947.2;;;22.4;32.8
40013;BME280;37387;42.672;23.334;2023-03-20T08:34:37;947.2;;;22.8;32.5
40013;BME280;37387;42.672;23.334;2023-03-20T08:35:37;947.2;;;22.3;32.0
40013;BME280;37387;42.672;23.334;2023-03-20T08:36:37;947.2;;;22.6;32.6
40013;BME280;37387;42.672;23.334;2023-03-20T08:37:37;947.2;;;23.1;32.3
40013;BME280;37387;42.672;23.334;2023-03-20T08:38:37;947.2;;;22.1;32.1
40013;BME280;37387;42.672;23.334;2023-03-20T08:39:37;947.2;;;21.3;32.1
40013;BME280;37387;42.672;23.334;2023-03-20T08:40:39;947.1;;;20.8;33.3
40013;BME280;37387;42.672;23.334;2023-03-20T08:41:38;947.1;;;21.2;34.2
40013;BME280;37387;42.672;23.334;2023-03-20T08:42:38;947.1;;;21.7;33.8
40013;BME280;37387;42.672;23.334;2023-03-20T08:43:37;947.2;;;21.9;33.2
40013;BME280;37387;42.672;23.334;2023-03-20T08:44:38;947.2;;;22.1;32.9
40013;BME280;37387;42.672;23.334;2023-03-20T08:45:37;947.2;;;22.4;32.6
40013;BME280;37387;42.672;23.334;2023-03-20T08:46:37;947.1;;;21.8;33.0
40013;BME280;37387;42.672;23.334;2023-03-20T08:47:37;947.1;;;21.9;33.0
40013;BME280;37387;42.672;23.334;2023-03-20T08:48:38;947.0;;;20.0;35.0
40013;BME280;37387;42.672;23.334;2023-03-20T08:49:37;947.0;;;19.9;35.4
40013;BME280;37387;42.672;23.334;2023-03-20T08:50:38;947.0;;;20.5;35.4
40013;BME280;37387;42.672;23.334;2023-03-20T08:51:37;947.0;;;19.6;35.3
40013;BME280;37387;42.672;23.334;2023-03-20T08:53:37;947.0;;;20.4;35.9
40013;BME280;37387;42.672;23.334;2023-03-20T08:54:37;947.1;;;21.4;35.5
40013;BME280;37387;42.672;23.334;2023-03-20T08:55:37;947.1;;;22.1;34.0
40013;BME280;37387;42.672;23.334;2023-03-20T08:56:37;947.0;;;21.4;34.1
40013;BME280;37387;42.672;23.334;2023-03-20T08:57:37;947.0;;;21.8;34.1
40013;BME280;37387;42.672;23.334;2023-03-20T08:58:37;947.1;;;22.6;33.5
40013;BME280;37387;42.672;23.334;2023-03-20T08:59:37;947.1;;;22.2;32.5
40013;BME280;37387;42.672;23.334;2023-03-20T09:00:37;947.1;;;22.0;32.9
40013;BME280;37387;42.672;23.334;2023-03-20T09:01:37;947.1;;;21.4;32.9
40013;BME280;37387;42.672;23.334;2023-03-20T09:02:38;947.0;;;21.8;33.7
40013;BME280;37387;42.672;23.334;2023-03-20T09:03:37;947.0;;;22.1;33.2
40013;BME280;37387;42.672;23.334;2023-03-20T09:04:37;947.0;;;21.9;32.6
40013;BME280;37387;42.672;23.334;2023-03-20T09:05:37;947.1;;;22.4;32.8
40013;BME280;37387;42.672;23.334;2023-03-20T09:06:37;947.1;;;22.2;32.2
40013;BME280;37387;42.672;23.334;2023-03-20T09:07:37;946.9;;;20.6;33.8
40013;BME280;37387;42.672;23.334;2023-03-20T09:08:37;946.9;;;21.0;33.8
40013;BME280;37387;42.672;23.334;2023-03-20T09:09:37;947.0;;;21.5;34.1
40013;BME280;37387;42.672;23.334;2023-03-20T09:10:37;946.9;;;21.7;33.5
40013;BME280;37387;42.672;23.334;2023-03-20T09:11:37;946.9;;;20.9;33.9
40013;BME280;37387;42.672;23.334;2023-03-20T09:12:38;946.9;;;21.0;34.1
40013;BME280;37387;42.672;23.334;2023-03-20T09:14:38;946.9;;;21.5;34.4
40013;BME280;37387;42.672;23.334;2023-03-20T09:15:37;946.9;;;21.2;33.5
40013;BME280;37387;42.672;23.334;2023-03-20T09:16:37;946.9;;;21.3;33.5
40013;BME280;37387;42.672;23.334;2023-03-20T09:17:37;946.8;;;21.5;34.0
40013;BME280;37387;42.672;23.334;2023-03-20T09:19:37;946.9;;;21.8;33.2
40013;BME280;37387;42.672;23.334;2023-03-20T09:20:38;946.9;;;21.5;33.0
40013;BME280;37387;42.672;23.334;2023-03-20T09:21:37;946.9;;;21.6;33.7
40013;BME280;37387;42.672;23.334;2023-03-20T09:22:37;946.8;;;21.4;33.5
40013;BME280;37387;42.672;23.334;2023-03-20T09:24:38;946.8;;;21.5;33.6
40013;BME280;37387;42.672;23.334;2023-03-20T09:25:37;946.8;;;22.3;33.6
40013;BME280;37387;42.672;23.334;2023-03-20T09:26:37;946.8;;;22.7;32.6
40013;BME280;37387;42.672;23.334;2023-03-20T09:27:37;946.8;;;22.1;32.1
40013;BME280;37387;42.672;23.334;2023-03-20T09:28:37;946.8;;;22.3;32.3
40013;BME280;37387;42.672;23.334;2023-03-20T09:29:38;946.8;;;22.6;32.2
40013;BME280;37387;42.672;23.334;2023-03-20T09:30:37;946.8;;;21.8;32.0
40013;BME280;37387;42.672;23.334;2023-03-20T09:31:37;946.7;;;20.8;32.6
40013;BME280;37387;42.672;23.334;2023-03-20T09:32:37;946.7;;;20.9;33.9
40013;BME280;37387;42.672;23.334;2023-03-20T09:33:37;946.7;;;20.8;33.9
40013;BME280;37387;42.672;23.334;2023-03-20T09:34:37;946.7;;;20.6;34.2
40013;BME280;37387;42.672;23.334;2023-03-20T09:35:37;946.7;;;20.5;34.2
40013;BME280;37387;42.672;23.334;2023-03-20T09:36:37;946.7;;;20.6;34.7